sensor_id;sensor_type;location;lat;lon;timestamp;P1;durP1;ratioP1;P2;durP2;ratioP2
64075;SDS011;50327;51.328;12.324;2022-12-18T00:00:44;46.72;;;16.73;;
64075;SDS011;50327;51.328;12.324;2022-12-18T00:03:12;36.00;;;16.33;;
64075;SDS011;50327;51.328;12.324;2022-12-18T00:05:45;41.22;;;17.67;;
64075;SDS011;50327;51.328;12.324;2022-12-18T00:08:14;36.78;;;17.77;;
64075;SDS011;50327;51.328;12.324;2022-12-18T00:10:40;50.80;;;18.65;;
64075;SDS011;50327;51.328;12.324;2022-12-18T00:13:07;47.97;;;19.35;;
64075;SDS011;50327;51.328;12.324;2022-12-18T00:15:36;39.92;;;18.85;;
64075;SDS011;50327;51.328;12.324;2022-12-18T00:18:02;68.20;;;23.52;;
64075;SDS011;50327;51.328;12.324;2022-12-18T00:20:28;41.60;;;19.20;;
64075;SDS011;50327;51.328;12.324;2022-12-18T00:22:53;49.17;;;20.02;;
64075;SDS011;50327;51.328;12.324;2022-12-18T00:25:19;44.75;;;19.10;;
64075;SDS011;50327;51.328;12.324;2022-12-18T00:27:44;45.45;;;20.40;;
64075;SDS011;50327;51.328;12.324;2022-12-18T00:30:10;48.53;;;21.70;;
64075;SDS011;50327;51.328;12.324;2022-12-18T00:32:36;42.67;;;18.52;;
64075;SDS011;50327;51.328;12.324;2022-12-18T00:35:02;49.78;;;17.80;;
64075;SDS011;50327;51.328;12.324;2022-12-18T00:37:28;41.95;;;16.95;;
64075;SDS011;50327;51.328;12.324;2022-12-18T00:39:53;47.78;;;18.55;;
64075;SDS011;50327;51.328;12.324;2022-12-18T00:42:19;40.30;;;16.65;;
64075;SDS011;50327;51.328;12.324;2022-12-18T00:45:03;46.88;;;19.90;;
64075;SDS011;50327;51.328;12.324;2022-12-18T00:47:29;50.67;;;17.05;;
64075;SDS011;50327;51.328;12.324;2022-12-18T00:49:54;45.33;;;16.20;;
64075;SDS011;50327;51.328;12.324;2022-12-18T00:52:19;36.33;;;15.75;;
64075;SDS011;50327;51.328;12.324;2022-12-18T00:54:45;39.78;;;18.20;;
64075;SDS011;50327;51.328;12.324;2022-12-18T00:57:10;37.05;;;15.07;;
64075;SDS011;50327;51.328;12.324;2022-12-18T00:59:35;39.33;;;17.63;;
64075;SDS011;50327;51.328;12.324;2022-12-18T01:02:01;39.42;;;15.98;;
64075;SDS011;50327;51.328;12.324;2022-12-18T01:04:26;34.60;;;16.20;;
64075;SDS011;50327;51.328;12.324;2022-12-18T01:06:51;38.33;;;16.23;;
64075;SDS011;50327;51.328;12.324;2022-12-18T01:09:17;43.33;;;18.10;;
64075;SDS011;50327;51.328;12.324;2022-12-18T01:11:42;44.30;;;18.30;;
64075;SDS011;50327;51.328;12.324;2022-12-18T01:14:07;36.13;;;17.25;;
64075;SDS011;50327;51.328;12.324;2022-12-18T01:16:33;38.75;;;16.05;;
64075;SDS011;50327;51.328;12.324;2022-12-18T01:18:58;35.47;;;16.42;;
64075;SDS011;50327;51.328;12.324;2022-12-18T01:21:24;37.75;;;15.75;;
64075;SDS011;50327;51.328;12.324;2022-12-18T01:23:53;32.63;;;15.63;;
64075;SDS011;50327;51.328;12.324;2022-12-18T01:26:19;31.08;;;15.23;;
64075;SDS011;50327;51.328;12.324;2022-12-18T01:28:45;37.03;;;16.80;;
64075;SDS011;50327;51.328;12.324;2022-12-18T01:31:18;42.33;;;16.77;;
64075;SDS011;50327;51.328;12.324;2022-12-18T01:33:49;47.17;;;17.92;;
64075;SDS011;50327;51.328;12.324;2022-12-18T01:36:35;37.38;;;17.23;;
64075;SDS011;50327;51.328;12.324;2022-12-18T01:39:03;32.28;;;14.90;;
64075;SDS011;50327;51.328;12.324;2022-12-18T01:41:31;36.35;;;17.67;;
64075;SDS011;50327;51.328;12.324;2022-12-18T01:49:57;32.95;;;15.32;;
64075;SDS011;50327;51.328;12.324;2022-12-18T01:54:53;35.22;;;15.55;;
64075;SDS011;50327;51.328;12.324;2022-12-18T01:57:19;24.95;;;14.98;;
64075;SDS011;50327;51.328;12.324;2022-12-18T01:59:45;33.60;;;15.88;;
64075;SDS011;50327;51.328;12.324;2022-12-18T02:02:15;29.55;;;14.85;;
64075;SDS011;50327;51.328;12.324;2022-12-18T02:04:41;35.83;;;15.45;;
64075;SDS011;50327;51.328;12.324;2022-12-18T02:07:12;37.15;;;15.50;;
64075;SDS011;50327;51.328;12.324;2022-12-18T02:10:02;41.00;;;17.85;;
64075;SDS011;50327;51.328;12.324;2022-12-18T02:13:21;38.72;;;19.55;;
64075;SDS011;50327;51.328;12.324;2022-12-18T02:18:14;31.85;;;15.52;;
64075;SDS011;50327;51.328;12.324;2022-12-18T02:20:52;29.45;;;14.55;;
64075;SDS011;50327;51.328;12.324;2022-12-18T02:28:35;41.58;;;17.55;;
64075;SDS011;50327;51.328;12.324;2022-12-18T02:31:05;35.63;;;15.60;;
64075;SDS011;50327;51.328;12.324;2022-12-18T02:33:38;38.97;;;16.13;;
64075;SDS011;50327;51.328;12.324;2022-12-18T02:36:06;44.00;;;15.65;;
64075;SDS011;50327;51.328;12.324;2022-12-18T02:38:34;33.40;;;14.85;;
64075;SDS011;50327;51.328;12.324;2022-12-18T02:41:00;36.80;;;16.58;;
64075;SDS011;50327;51.328;12.324;2022-12-18T02:43:25;41.08;;;16.45;;
64075;SDS011;50327;51.328;12.324;2022-12-18T02:45:55;42.08;;;17.65;;
64075;SDS011;50327;51.328;12.324;2022-12-18T02:48:24;39.58;;;15.48;;
64075;SDS011;50327;51.328;12.324;2022-12-18T02:51:11;37.45;;;13.68;;
64075;SDS011;50327;51.328;12.324;2022-12-18T02:53:45;36.97;;;12.65;;
64075;SDS011;50327;51.328;12.324;2022-12-18T02:56:26;27.58;;;12.32;;
64075;SDS011;50327;51.328;12.324;2022-12-18T02:59:00;27.80;;;13.93;;
64075;SDS011;50327;51.328;12.324;2022-12-18T03:01:42;33.13;;;12.98;;
64075;SDS011;50327;51.328;12.324;2022-12-18T03:07:17;39.25;;;15.63;;
64075;SDS011;50327;51.328;12.324;2022-12-18T03:09:47;24.77;;;13.75;;
64075;SDS011;50327;51.328;12.324;2022-12-18T03:12:20;34.15;;;13.93;;
64075;SDS011;50327;51.328;12.324;2022-12-18T03:15:01;32.78;;;13.60;;
64075;SDS011;50327;51.328;12.324;2022-12-18T03:17:33;37.38;;;15.25;;
64075;SDS011;50327;51.328;12.324;2022-12-18T03:20:06;32.28;;;13.20;;
64075;SDS011;50327;51.328;12.324;2022-12-18T03:22:37;34.08;;;15.88;;
64075;SDS011;50327;51.328;12.324;2022-12-18T03:25:04;38.30;;;15.13;;
64075;SDS011;50327;51.328;12.324;2022-12-18T03:27:33;20.85;;;11.25;;
64075;SDS011;50327;51.328;12.324;2022-12-18T03:30:04;29.23;;;12.85;;
64075;SDS011;50327;51.328;12.324;2022-12-18T03:32:46;31.77;;;13.02;;
64075;SDS011;50327;51.328;12.324;2022-12-18T03:35:18;30.83;;;13.40;;
64075;SDS011;50327;51.328;12.324;2022-12-18T03:37:51;27.38;;;11.85;;
64075;SDS011;50327;51.328;12.324;2022-12-18T03:40:16;28.05;;;12.80;;
64075;SDS011;50327;51.328;12.324;2022-12-18T03:42:45;18.60;;;10.38;;
64075;SDS011;50327;51.328;12.324;2022-12-18T03:47:58;24.67;;;12.02;;
64075;SDS011;50327;51.328;12.324;2022-12-18T03:55:21;29.33;;;12.25;;
64075;SDS011;50327;51.328;12.324;2022-12-18T03:57:48;21.23;;;9.50;;
64075;SDS011;50327;51.328;12.324;2022-12-18T04:00:16;26.63;;;10.60;;
64075;SDS011;50327;51.328;12.324;2022-12-18T04:02:43;25.02;;;9.95;;
64075;SDS011;50327;51.328;12.324;2022-12-18T04:05:12;17.83;;;10.07;;
64075;SDS011;50327;51.328;12.324;2022-12-18T04:07:39;25.77;;;11.35;;
64075;SDS011;50327;51.328;12.324;2022-12-18T04:10:06;30.55;;;12.43;;
64075;SDS011;50327;51.328;12.324;2022-12-18T04:12:32;25.17;;;10.70;;
64075;SDS011;50327;51.328;12.324;2022-12-18T04:14:57;23.35;;;10.57;;
64075;SDS011;50327;51.328;12.324;2022-12-18T04:17:23;25.85;;;11.68;;
64075;SDS011;50327;51.328;12.324;2022-12-18T04:19:48;19.67;;;10.35;;
64075;SDS011;50327;51.328;12.324;2022-12-18T04:22:14;24.33;;;9.65;;
64075;SDS011;50327;51.328;12.324;2022-12-18T04:24:39;28.60;;;10.23;;
64075;SDS011;50327;51.328;12.324;2022-12-18T04:27:05;17.50;;;9.02;;
64075;SDS011;50327;51.328;12.324;2022-12-18T04:29:30;23.38;;;12.10;;
64075;SDS011;50327;51.328;12.324;2022-12-18T04:31:56;25.55;;;9.65;;
64075;SDS011;50327;51.328;12.324;2022-12-18T04:34:21;20.20;;;9.35;;
64075;SDS011;50327;51.328;12.324;2022-12-18T04:36:47;19.98;;;8.73;;
64075;SDS011;50327;51.328;12.324;2022-12-18T04:39:13;24.63;;;8.75;;
64075;SDS011;50327;51.328;12.324;2022-12-18T04:41:38;31.67;;;11.02;;
64075;SDS011;50327;51.328;12.324;2022-12-18T04:44:04;18.67;;;9.73;;
64075;SDS011;50327;51.328;12.324;2022-12-18T04:46:29;21.88;;;8.65;;
64075;SDS011;50327;51.328;12.324;2022-12-18T04:48:55;22.20;;;9.98;;
64075;SDS011;50327;51.328;12.324;2022-12-18T04:51:20;15.85;;;7.72;;
64075;SDS011;50327;51.328;12.324;2022-12-18T04:53:46;11.07;;;6.35;;
64075;SDS011;50327;51.328;12.324;2022-12-18T04:56:12;19.20;;;7.57;;
64075;SDS011;50327;51.328;12.324;2022-12-18T04:58:39;21.88;;;8.43;;
64075;SDS011;50327;51.328;12.324;2022-12-18T05:01:06;20.98;;;8.75;;
64075;SDS011;50327;51.328;12.324;2022-12-18T05:03:32;19.38;;;8.88;;
64075;SDS011;50327;51.328;12.324;2022-12-18T05:05:58;20.30;;;8.75;;
64075;SDS011;50327;51.328;12.324;2022-12-18T05:08:24;20.75;;;7.00;;
64075;SDS011;50327;51.328;12.324;2022-12-18T05:10:49;18.90;;;9.20;;
64075;SDS011;50327;51.328;12.324;2022-12-18T05:13:14;14.18;;;6.78;;
64075;SDS011;50327;51.328;12.324;2022-12-18T05:15:40;14.82;;;6.75;;
64075;SDS011;50327;51.328;12.324;2022-12-18T05:18:07;16.80;;;8.13;;
64075;SDS011;50327;51.328;12.324;2022-12-18T05:20:33;20.25;;;9.05;;
64075;SDS011;50327;51.328;12.324;2022-12-18T05:22:58;14.68;;;7.50;;
64075;SDS011;50327;51.328;12.324;2022-12-18T05:25:23;17.98;;;8.15;;
64075;SDS011;50327;51.328;12.324;2022-12-18T05:27:49;20.10;;;8.57;;
64075;SDS011;50327;51.328;12.324;2022-12-18T05:30:15;17.15;;;7.25;;
64075;SDS011;50327;51.328;12.324;2022-12-18T05:32:40;24.42;;;8.27;;
64075;SDS011;50327;51.328;12.324;2022-12-18T05:35:07;15.07;;;7.18;;
64075;SDS011;50327;51.328;12.324;2022-12-18T05:37:34;14.77;;;6.93;;
64075;SDS011;50327;51.328;12.324;2022-12-18T05:39:59;14.50;;;7.47;;
64075;SDS011;50327;51.328;12.324;2022-12-18T05:42:25;12.35;;;6.63;;
64075;SDS011;50327;51.328;12.324;2022-12-18T05:44:50;14.85;;;6.13;;
64075;SDS011;50327;51.328;12.324;2022-12-18T05:47:15;19.33;;;7.57;;
64075;SDS011;50327;51.328;12.324;2022-12-18T05:49:41;13.27;;;7.45;;
64075;SDS011;50327;51.328;12.324;2022-12-18T05:52:06;16.35;;;7.82;;
64075;SDS011;50327;51.328;12.324;2022-12-18T05:54:32;18.60;;;8.93;;
64075;SDS011;50327;51.328;12.324;2022-12-18T05:56:57;17.02;;;8.00;;
64075;SDS011;50327;51.328;12.324;2022-12-18T05:59:23;19.45;;;7.38;;
64075;SDS011;50327;51.328;12.324;2022-12-18T06:01:48;13.43;;;6.78;;
64075;SDS011;50327;51.328;12.324;2022-12-18T06:04:14;14.32;;;6.70;;
64075;SDS011;50327;51.328;12.324;2022-12-18T06:06:39;17.23;;;7.65;;
64075;SDS011;50327;51.328;12.324;2022-12-18T06:09:05;11.90;;;7.68;;
64075;SDS011;50327;51.328;12.324;2022-12-18T06:11:33;12.20;;;5.40;;
64075;SDS011;50327;51.328;12.324;2022-12-18T06:13:59;11.65;;;5.57;;
64075;SDS011;50327;51.328;12.324;2022-12-18T06:16:25;13.05;;;6.90;;
64075;SDS011;50327;51.328;12.324;2022-12-18T06:18:51;13.73;;;6.72;;
64075;SDS011;50327;51.328;12.324;2022-12-18T06:21:16;14.88;;;6.88;;
64075;SDS011;50327;51.328;12.324;2022-12-18T06:23:42;20.45;;;8.00;;
64075;SDS011;50327;51.328;12.324;2022-12-18T06:26:08;15.90;;;7.72;;
64075;SDS011;50327;51.328;12.324;2022-12-18T06:28:36;14.10;;;6.50;;
64075;SDS011;50327;51.328;12.324;2022-12-18T06:31:04;17.02;;;8.00;;
64075;SDS011;50327;51.328;12.324;2022-12-18T06:35:59;14.27;;;7.13;;
64075;SDS011;50327;51.328;12.324;2022-12-18T06:38:27;11.25;;;6.30;;
64075;SDS011;50327;51.328;12.324;2022-12-18T06:40:52;14.00;;;7.07;;
64075;SDS011;50327;51.328;12.324;2022-12-18T06:43:17;12.98;;;5.18;;
64075;SDS011;50327;51.328;12.324;2022-12-18T06:45:43;16.88;;;7.55;;
64075;SDS011;50327;51.328;12.324;2022-12-18T06:48:08;14.63;;;6.30;;
64075;SDS011;50327;51.328;12.324;2022-12-18T06:50:34;13.18;;;6.38;;
64075;SDS011;50327;51.328;12.324;2022-12-18T06:52:59;15.88;;;6.85;;
64075;SDS011;50327;51.328;12.324;2022-12-18T06:55:24;12.38;;;5.95;;
64075;SDS011;50327;51.328;12.324;2022-12-18T06:57:50;12.40;;;6.22;;
64075;SDS011;50327;51.328;12.324;2022-12-18T07:00:15;10.55;;;6.70;;
64075;SDS011;50327;51.328;12.324;2022-12-18T07:02:41;13.70;;;5.63;;
64075;SDS011;50327;51.328;12.324;2022-12-18T07:05:07;13.65;;;6.53;;
64075;SDS011;50327;51.328;12.324;2022-12-18T07:07:35;14.90;;;6.90;;
64075;SDS011;50327;51.328;12.324;2022-12-18T07:10:01;13.77;;;6.20;;
64075;SDS011;50327;51.328;12.324;2022-12-18T07:12:27;15.95;;;6.28;;
64075;SDS011;50327;51.328;12.324;2022-12-18T07:14:52;14.48;;;5.97;;
64075;SDS011;50327;51.328;12.324;2022-12-18T07:17:17;13.75;;;6.35;;
64075;SDS011;50327;51.328;12.324;2022-12-18T07:19:43;9.88;;;5.88;;
64075;SDS011;50327;51.328;12.324;2022-12-18T07:22:08;9.57;;;5.30;;
64075;SDS011;50327;51.328;12.324;2022-12-18T07:24:33;11.25;;;5.75;;
64075;SDS011;50327;51.328;12.324;2022-12-18T07:26:59;11.15;;;5.35;;
64075;SDS011;50327;51.328;12.324;2022-12-18T07:29:25;11.18;;;4.50;;
64075;SDS011;50327;51.328;12.324;2022-12-18T07:31:50;10.68;;;5.20;;
64075;SDS011;50327;51.328;12.324;2022-12-18T07:34:16;13.30;;;5.43;;
64075;SDS011;50327;51.328;12.324;2022-12-18T07:36:41;13.73;;;6.55;;
64075;SDS011;50327;51.328;12.324;2022-12-18T07:39:07;14.70;;;6.13;;
64075;SDS011;50327;51.328;12.324;2022-12-18T07:41:32;15.18;;;6.65;;
64075;SDS011;50327;51.328;12.324;2022-12-18T07:43:58;15.48;;;8.00;;
64075;SDS011;50327;51.328;12.324;2022-12-18T07:46:23;11.82;;;5.70;;
64075;SDS011;50327;51.328;12.324;2022-12-18T07:48:49;19.73;;;6.15;;
64075;SDS011;50327;51.328;12.324;2022-12-18T07:51:14;16.52;;;6.90;;
64075;SDS011;50327;51.328;12.324;2022-12-18T07:53:40;11.27;;;5.72;;
64075;SDS011;50327;51.328;12.324;2022-12-18T07:56:07;22.45;;;7.47;;
64075;SDS011;50327;51.328;12.324;2022-12-18T07:58:34;10.57;;;5.15;;
64075;SDS011;50327;51.328;12.324;2022-12-18T08:03:29;19.50;;;7.05;;
64075;SDS011;50327;51.328;12.324;2022-12-18T08:05:58;14.45;;;6.07;;
64075;SDS011;50327;51.328;12.324;2022-12-18T08:08:27;13.00;;;6.53;;
64075;SDS011;50327;51.328;12.324;2022-12-18T08:10:52;11.55;;;5.50;;
64075;SDS011;50327;51.328;12.324;2022-12-18T08:13:18;9.43;;;5.03;;
64075;SDS011;50327;51.328;12.324;2022-12-18T08:15:43;11.07;;;5.40;;
64075;SDS011;50327;51.328;12.324;2022-12-18T08:18:08;15.38;;;5.80;;
64075;SDS011;50327;51.328;12.324;2022-12-18T08:20:34;13.00;;;4.75;;
64075;SDS011;50327;51.328;12.324;2022-12-18T08:22:59;15.05;;;6.35;;
64075;SDS011;50327;51.328;12.324;2022-12-18T08:25:24;15.18;;;6.50;;
64075;SDS011;50327;51.328;12.324;2022-12-18T08:27:50;15.50;;;7.60;;
64075;SDS011;50327;51.328;12.324;2022-12-18T08:30:15;15.80;;;6.70;;
64075;SDS011;50327;51.328;12.324;2022-12-18T08:32:41;17.55;;;5.95;;
64075;SDS011;50327;51.328;12.324;2022-12-18T08:35:06;19.48;;;5.97;;
64075;SDS011;50327;51.328;12.324;2022-12-18T08:37:33;15.02;;;6.70;;
64075;SDS011;50327;51.328;12.324;2022-12-18T08:39:58;12.13;;;6.28;;
64075;SDS011;50327;51.328;12.324;2022-12-18T08:42:24;14.52;;;6.03;;
64075;SDS011;50327;51.328;12.324;2022-12-18T08:45:08;19.20;;;6.57;;
64075;SDS011;50327;51.328;12.324;2022-12-18T08:47:34;13.25;;;6.47;;
64075;SDS011;50327;51.328;12.324;2022-12-18T08:49:59;13.13;;;6.55;;
64075;SDS011;50327;51.328;12.324;2022-12-18T08:52:24;22.00;;;7.05;;
64075;SDS011;50327;51.328;12.324;2022-12-18T08:54:50;8.32;;;4.90;;
64075;SDS011;50327;51.328;12.324;2022-12-18T08:57:15;11.10;;;5.63;;
64075;SDS011;50327;51.328;12.324;2022-12-18T08:59:41;12.18;;;6.30;;
64075;SDS011;50327;51.328;12.324;2022-12-18T09:02:07;13.25;;;5.40;;
64075;SDS011;50327;51.328;12.324;2022-12-18T09:04:35;13.93;;;5.72;;
64075;SDS011;50327;51.328;12.324;2022-12-18T09:07:00;10.88;;;5.80;;
64075;SDS011;50327;51.328;12.324;2022-12-18T09:09:25;17.33;;;6.72;;
64075;SDS011;50327;51.328;12.324;2022-12-18T09:11:51;22.83;;;5.93;;
64075;SDS011;50327;51.328;12.324;2022-12-18T09:14:16;15.52;;;5.50;;
64075;SDS011;50327;51.328;12.324;2022-12-18T09:16:41;14.73;;;6.10;;
64075;SDS011;50327;51.328;12.324;2022-12-18T09:19:07;16.67;;;5.43;;
64075;SDS011;50327;51.328;12.324;2022-12-18T09:21:34;11.40;;;5.93;;
64075;SDS011;50327;51.328;12.324;2022-12-18T09:24:00;19.55;;;6.78;;
64075;SDS011;50327;51.328;12.324;2022-12-18T09:26:26;9.50;;;5.53;;
64075;SDS011;50327;51.328;12.324;2022-12-18T09:28:52;11.98;;;6.15;;
64075;SDS011;50327;51.328;12.324;2022-12-18T09:31:19;19.38;;;6.55;;
64075;SDS011;50327;51.328;12.324;2022-12-18T09:33:46;24.08;;;6.90;;
64075;SDS011;50327;51.328;12.324;2022-12-18T09:36:12;12.23;;;5.50;;
64075;SDS011;50327;51.328;12.324;2022-12-18T09:38:40;11.63;;;5.05;;
64075;SDS011;50327;51.328;12.324;2022-12-18T09:43:55;19.00;;;5.80;;
64075;SDS011;50327;51.328;12.324;2022-12-18T09:46:26;11.50;;;5.78;;
64075;SDS011;50327;51.328;12.324;2022-12-18T09:48:56;17.42;;;7.32;;
64075;SDS011;50327;51.328;12.324;2022-12-18T09:51:29;14.55;;;6.28;;
64075;SDS011;50327;51.328;12.324;2022-12-18T09:54:07;14.75;;;5.45;;
64075;SDS011;50327;51.328;12.324;2022-12-18T09:56:43;9.80;;;4.93;;
64075;SDS011;50327;51.328;12.324;2022-12-18T10:02:23;13.02;;;5.15;;
64075;SDS011;50327;51.328;12.324;2022-12-18T10:04:53;9.50;;;5.20;;
64075;SDS011;50327;51.328;12.324;2022-12-18T10:10:14;9.70;;;4.88;;
64075;SDS011;50327;51.328;12.324;2022-12-18T10:13:15;44.28;;;11.60;;
64075;SDS011;50327;51.328;12.324;2022-12-18T10:15:46;25.98;;;9.52;;
64075;SDS011;50327;51.328;12.324;2022-12-18T10:21:09;16.20;;;5.85;;
64075;SDS011;50327;51.328;12.324;2022-12-18T10:26:22;11.40;;;5.85;;
64075;SDS011;50327;51.328;12.324;2022-12-18T10:28:49;12.27;;;5.30;;
64075;SDS011;50327;51.328;12.324;2022-12-18T10:31:16;15.00;;;6.65;;
64075;SDS011;50327;51.328;12.324;2022-12-18T10:33:43;18.95;;;6.65;;
64075;SDS011;50327;51.328;12.324;2022-12-18T10:36:09;18.17;;;7.20;;
64075;SDS011;50327;51.328;12.324;2022-12-18T10:38:35;16.83;;;6.80;;
64075;SDS011;50327;51.328;12.324;2022-12-18T10:44:11;11.40;;;5.38;;
64075;SDS011;50327;51.328;12.324;2022-12-18T10:46:37;10.13;;;4.53;;
64075;SDS011;50327;51.328;12.324;2022-12-18T10:49:02;15.00;;;4.82;;
64075;SDS011;50327;51.328;12.324;2022-12-18T10:51:30;10.57;;;4.10;;
64075;SDS011;50327;51.328;12.324;2022-12-18T10:54:04;11.23;;;4.53;;
64075;SDS011;50327;51.328;12.324;2022-12-18T10:56:33;13.55;;;6.28;;
64075;SDS011;50327;51.328;12.324;2022-12-18T10:59:04;10.67;;;4.80;;
64075;SDS011;50327;51.328;12.324;2022-12-18T11:04:17;8.40;;;4.07;;
64075;SDS011;50327;51.328;12.324;2022-12-18T11:09:31;14.38;;;5.88;;
64075;SDS011;50327;51.328;12.324;2022-12-18T11:12:08;11.77;;;4.68;;
64075;SDS011;50327;51.328;12.324;2022-12-18T11:14:51;13.38;;;5.63;;
64075;SDS011;50327;51.328;12.324;2022-12-18T11:19:43;11.48;;;4.78;;
64075;SDS011;50327;51.328;12.324;2022-12-18T11:22:28;9.70;;;4.85;;
64075;SDS011;50327;51.328;12.324;2022-12-18T11:25:03;10.98;;;5.50;;
64075;SDS011;50327;51.328;12.324;2022-12-18T11:27:31;9.93;;;5.22;;
64075;SDS011;50327;51.328;12.324;2022-12-18T11:33:00;6.90;;;3.75;;
64075;SDS011;50327;51.328;12.324;2022-12-18T11:40:53;11.43;;;5.15;;
64075;SDS011;50327;51.328;12.324;2022-12-18T11:45:50;11.95;;;4.18;;
64075;SDS011;50327;51.328;12.324;2022-12-18T11:51:11;10.63;;;5.03;;
64075;SDS011;50327;51.328;12.324;2022-12-18T11:53:44;11.75;;;4.75;;
64075;SDS011;50327;51.328;12.324;2022-12-18T11:56:19;10.63;;;5.20;;
64075;SDS011;50327;51.328;12.324;2022-12-18T12:04:22;13.73;;;5.15;;
64075;SDS011;50327;51.328;12.324;2022-12-18T12:09:57;13.48;;;5.80;;
64075;SDS011;50327;51.328;12.324;2022-12-18T12:21:03;16.92;;;6.28;;
64075;SDS011;50327;51.328;12.324;2022-12-18T12:24:10;18.60;;;7.13;;
64075;SDS011;50327;51.328;12.324;2022-12-18T12:26:53;12.90;;;6.35;;
64075;SDS011;50327;51.328;12.324;2022-12-18T12:37:32;14.52;;;7.10;;
64075;SDS011;50327;51.328;12.324;2022-12-18T12:39:59;17.85;;;7.10;;
64075;SDS011;50327;51.328;12.324;2022-12-18T12:42:34;19.88;;;7.72;;
64075;SDS011;50327;51.328;12.324;2022-12-18T12:45:23;18.95;;;7.57;;
64075;SDS011;50327;51.328;12.324;2022-12-18T12:47:54;18.27;;;7.63;;
64075;SDS011;50327;51.328;12.324;2022-12-18T12:50:20;23.05;;;7.70;;
64075;SDS011;50327;51.328;12.324;2022-12-18T12:52:54;21.00;;;7.18;;
64075;SDS011;50327;51.328;12.324;2022-12-18T12:55:22;13.32;;;6.72;;
64075;SDS011;50327;51.328;12.324;2022-12-18T12:57:56;15.32;;;6.53;;
64075;SDS011;50327;51.328;12.324;2022-12-18T13:00:28;21.65;;;8.45;;
64075;SDS011;50327;51.328;12.324;2022-12-18T13:05:49;12.63;;;6.13;;
64075;SDS011;50327;51.328;12.324;2022-12-18T13:08:27;12.82;;;6.22;;
64075;SDS011;50327;51.328;12.324;2022-12-18T13:10:54;14.07;;;6.35;;
64075;SDS011;50327;51.328;12.324;2022-12-18T13:16:20;15.20;;;5.72;;
64075;SDS011;50327;51.328;12.324;2022-12-18T13:18:54;18.85;;;6.45;;
64075;SDS011;50327;51.328;12.324;2022-12-18T13:21:30;18.77;;;6.63;;
64075;SDS011;50327;51.328;12.324;2022-12-18T13:24:14;14.32;;;6.20;;
64075;SDS011;50327;51.328;12.324;2022-12-18T13:26:52;17.30;;;6.85;;
64075;SDS011;50327;51.328;12.324;2022-12-18T13:32:26;12.85;;;6.18;;
64075;SDS011;50327;51.328;12.324;2022-12-18T13:37:42;16.05;;;6.78;;
64075;SDS011;50327;51.328;12.324;2022-12-18T13:45:45;21.05;;;8.65;;
64075;SDS011;50327;51.328;12.324;2022-12-18T13:48:24;17.10;;;7.15;;
64075;SDS011;50327;51.328;12.324;2022-12-18T13:51:05;20.27;;;6.97;;
64075;SDS011;50327;51.328;12.324;2022-12-18T13:53:33;18.88;;;8.75;;
64075;SDS011;50327;51.328;12.324;2022-12-18T13:56:04;18.92;;;8.32;;
64075;SDS011;50327;51.328;12.324;2022-12-18T13:58:30;23.60;;;8.75;;
64075;SDS011;50327;51.328;12.324;2022-12-18T14:00:56;18.25;;;9.38;;
64075;SDS011;50327;51.328;12.324;2022-12-18T14:03:24;19.13;;;8.43;;
64075;SDS011;50327;51.328;12.324;2022-12-18T14:06:01;24.50;;;8.75;;
64075;SDS011;50327;51.328;12.324;2022-12-18T14:08:35;17.95;;;8.05;;
64075;SDS011;50327;51.328;12.324;2022-12-18T14:11:04;24.00;;;7.78;;
64075;SDS011;50327;51.328;12.324;2022-12-18T14:13:41;20.40;;;9.90;;
64075;SDS011;50327;51.328;12.324;2022-12-18T14:16:07;17.95;;;8.82;;
64075;SDS011;50327;51.328;12.324;2022-12-18T14:18:53;17.05;;;8.57;;
64075;SDS011;50327;51.328;12.324;2022-12-18T14:21:29;19.15;;;8.43;;
64075;SDS011;50327;51.328;12.324;2022-12-18T14:24:04;18.42;;;9.02;;
64075;SDS011;50327;51.328;12.324;2022-12-18T14:26:43;22.35;;;9.40;;
64075;SDS011;50327;51.328;12.324;2022-12-18T14:32:03;20.95;;;9.45;;
64075;SDS011;50327;51.328;12.324;2022-12-18T14:34:30;23.70;;;10.40;;
64075;SDS011;50327;51.328;12.324;2022-12-18T14:36:55;27.85;;;11.25;;
64075;SDS011;50327;51.328;12.324;2022-12-18T14:39:22;30.65;;;11.07;;
64075;SDS011;50327;51.328;12.324;2022-12-18T14:41:50;26.17;;;10.50;;
64075;SDS011;50327;51.328;12.324;2022-12-18T14:44:16;27.75;;;10.98;;
64075;SDS011;50327;51.328;12.324;2022-12-18T14:46:42;26.25;;;11.88;;
64075;SDS011;50327;51.328;12.324;2022-12-18T14:49:24;33.50;;;13.45;;
64075;SDS011;50327;51.328;12.324;2022-12-18T14:51:55;25.77;;;10.27;;
64075;SDS011;50327;51.328;12.324;2022-12-18T14:54:24;28.08;;;11.88;;
64075;SDS011;50327;51.328;12.324;2022-12-18T14:56:56;28.15;;;12.55;;
64075;SDS011;50327;51.328;12.324;2022-12-18T14:59:26;25.50;;;12.25;;
64075;SDS011;50327;51.328;12.324;2022-12-18T15:02:04;27.52;;;12.32;;
64075;SDS011;50327;51.328;12.324;2022-12-18T15:04:37;28.88;;;14.40;;
64075;SDS011;50327;51.328;12.324;2022-12-18T15:07:10;23.73;;;12.07;;
64075;SDS011;50327;51.328;12.324;2022-12-18T15:09:36;39.53;;;14.45;;
64075;SDS011;50327;51.328;12.324;2022-12-18T15:12:03;30.23;;;12.70;;
64075;SDS011;50327;51.328;12.324;2022-12-18T15:14:47;33.63;;;14.60;;
64075;SDS011;50327;51.328;12.324;2022-12-18T15:17:14;31.15;;;14.40;;
64075;SDS011;50327;51.328;12.324;2022-12-18T15:19:43;41.17;;;16.52;;
64075;SDS011;50327;51.328;12.324;2022-12-18T15:24:50;32.13;;;13.38;;
64075;SDS011;50327;51.328;12.324;2022-12-18T15:27:20;26.48;;;11.85;;
64075;SDS011;50327;51.328;12.324;2022-12-18T15:32:32;32.85;;;12.45;;
64075;SDS011;50327;51.328;12.324;2022-12-18T15:35:17;28.55;;;11.90;;
64075;SDS011;50327;51.328;12.324;2022-12-18T15:37:50;29.75;;;13.90;;
64075;SDS011;50327;51.328;12.324;2022-12-18T15:40:17;26.98;;;13.27;;
64075;SDS011;50327;51.328;12.324;2022-12-18T15:42:47;35.65;;;15.40;;
64075;SDS011;50327;51.328;12.324;2022-12-18T15:45:31;31.98;;;13.68;;
64075;SDS011;50327;51.328;12.324;2022-12-18T15:47:57;37.65;;;15.13;;
64075;SDS011;50327;51.328;12.324;2022-12-18T15:50:23;27.05;;;13.20;;
64075;SDS011;50327;51.328;12.324;2022-12-18T15:52:49;32.05;;;13.68;;
64075;SDS011;50327;51.328;12.324;2022-12-18T15:55:18;33.67;;;13.25;;
64075;SDS011;50327;51.328;12.324;2022-12-18T15:58:04;31.65;;;14.35;;
64075;SDS011;50327;51.328;12.324;2022-12-18T16:00:31;34.83;;;16.25;;
64075;SDS011;50327;51.328;12.324;2022-12-18T16:02:58;36.63;;;15.90;;
64075;SDS011;50327;51.328;12.324;2022-12-18T16:05:24;34.55;;;15.20;;
64075;SDS011;50327;51.328;12.324;2022-12-18T16:07:51;28.48;;;14.85;;
64075;SDS011;50327;51.328;12.324;2022-12-18T16:10:17;34.72;;;14.25;;
64075;SDS011;50327;51.328;12.324;2022-12-18T16:12:42;37.28;;;14.82;;
64075;SDS011;50327;51.328;12.324;2022-12-18T16:15:09;37.63;;;16.55;;
64075;SDS011;50327;51.328;12.324;2022-12-18T16:17:38;46.72;;;17.00;;
64075;SDS011;50327;51.328;12.324;2022-12-18T16:20:04;31.20;;;13.60;;
64075;SDS011;50327;51.328;12.324;2022-12-18T16:22:30;37.55;;;13.07;;
64075;SDS011;50327;51.328;12.324;2022-12-18T16:24:56;31.73;;;12.75;;
64075;SDS011;50327;51.328;12.324;2022-12-18T16:27:22;36.53;;;14.75;;